createdAt,value
2019-02-20T00:02:58.721Z,9.73
2019-02-20T00:05:09.533Z,9.30
2019-02-20T00:07:20.324Z,8.97
2019-02-20T00:09:31.159Z,9.07
2019-02-20T00:11:41.955Z,9.17
2019-02-20T00:13:52.799Z,9.70
2019-02-20T00:16:03.620Z,8.53
2019-02-20T00:18:34.302Z,11.07
2019-02-20T00:20:45.140Z,10.13
2019-02-20T00:22:55.953Z,10.33
2019-02-20T00:25:06.853Z,10.47
2019-02-20T00:27:17.784Z,9.10
2019-02-20T00:29:28.581Z,11.43
2019-02-20T00:31:39.414Z,12.40
2019-02-20T00:33:50.197Z,12.47
2019-02-20T00:36:01.042Z,12.77
2019-02-20T00:38:11.942Z,12.77
2019-02-20T00:40:22.805Z,12.43
2019-02-20T00:42:33.605Z,11.67
2019-02-20T00:45:04.320Z,11.23
2019-02-20T00:47:35.109Z,10.90
2019-02-20T00:49:45.888Z,11.07
2019-02-20T00:54:15.628Z,10.93
2019-02-20T00:56:26.440Z,9.20
2019-02-20T00:58:37.231Z,9.67
2019-02-20T01:00:48.067Z,10.83
2019-02-20T01:02:58.866Z,10.20
2019-02-20T01:05:09.672Z,9.70
2019-02-20T01:07:20.578Z,11.10
2019-02-20T01:09:31.480Z,11.33
2019-02-20T01:11:42.282Z,10.30
2019-02-20T01:13:53.102Z,10.20
2019-02-20T01:16:03.949Z,11.80
2019-02-20T01:18:14.739Z,11.43
2019-02-20T01:20:25.539Z,10.07
2019-02-20T01:22:36.359Z,9.80
2019-02-20T01:24:47.163Z,9.47
2019-02-20T01:26:57.986Z,10.37
2019-02-20T01:29:08.776Z,9.80
2019-02-20T01:31:19.593Z,9.87
2019-02-20T01:33:30.380Z,8.73
2019-02-20T01:35:41.168Z,9.50
2019-02-20T01:37:51.989Z,10.10
2019-02-20T01:40:44.440Z,9.80
2019-02-20T01:42:55.235Z,9.87
2019-02-20T01:45:47.684Z,8.90
2019-02-20T01:47:58.499Z,8.53
2019-02-20T01:50:09.399Z,8.57
2019-02-20T01:52:20.201Z,8.47
2019-02-20T01:54:31.009Z,8.70
2019-02-20T01:56:41.956Z,9.70
2019-02-20T01:58:52.760Z,8.67
2019-02-20T02:01:03.571Z,8.70
2019-02-20T02:03:14.374Z,8.93
2019-02-20T02:05:25.174Z,9.57
2019-02-20T02:07:35.970Z,9.37
2019-02-20T02:09:46.851Z,10.03
2019-02-20T02:11:57.593Z,9.50
2019-02-20T02:14:08.420Z,10.30
2019-02-20T02:16:19.218Z,9.73
2019-02-20T02:18:30.081Z,8.63
2019-02-20T02:20:40.896Z,8.97
2019-02-20T02:22:51.694Z,8.97
2019-02-20T02:25:44.181Z,9.03
2019-02-20T02:27:54.978Z,8.43
2019-02-20T02:30:47.443Z,9.37
2019-02-20T02:32:58.342Z,9.33
2019-02-20T02:35:09.131Z,8.50
2019-02-20T02:37:19.925Z,8.70
2019-02-20T02:39:30.738Z,8.73
2019-02-20T02:42:01.425Z,8.47
2019-02-20T02:44:12.236Z,10.13
2019-02-20T02:46:23.024Z,9.63
2019-02-20T02:48:33.962Z,9.13
2019-02-20T02:50:44.838Z,8.83
2019-02-20T02:52:55.661Z,8.60
2019-02-20T02:55:06.586Z,8.73
2019-02-20T02:57:17.374Z,8.13
2019-02-20T02:59:28.195Z,8.23
2019-02-20T03:01:39.029Z,9.00
2019-02-20T03:03:49.820Z,8.27
2019-02-20T03:06:00.656Z,8.57
2019-02-20T03:08:11.497Z,8.77
2019-02-20T03:10:22.272Z,8.53
2019-02-20T03:12:33.069Z,8.50
2019-02-20T03:14:43.936Z,8.73
2019-02-20T03:16:54.751Z,8.47
2019-02-20T03:19:05.555Z,9.03
2019-02-20T03:21:16.406Z,8.87
2019-02-20T03:23:27.231Z,9.07
2019-02-20T03:25:38.065Z,9.27
2019-02-20T03:27:48.862Z,9.03
2019-02-20T03:29:59.704Z,8.83
2019-02-20T03:32:10.476Z,8.80
2019-02-20T03:34:21.261Z,8.47
2019-02-20T03:36:32.086Z,9.10
2019-02-20T03:38:42.888Z,9.17
2019-02-20T03:40:53.807Z,9.80
2019-02-20T03:43:04.615Z,9.27
2019-02-20T03:45:15.394Z,8.43
2019-02-20T03:47:26.210Z,8.40
2019-02-20T03:49:37.046Z,7.83
2019-02-20T03:51:47.814Z,9.17
2019-02-20T03:53:58.635Z,9.33
2019-02-20T03:56:09.533Z,8.73
2019-02-20T03:58:20.337Z,9.47
2019-02-20T04:00:31.128Z,8.80
2019-02-20T04:02:41.938Z,9.70
2019-02-20T04:04:52.745Z,9.17
2019-02-20T04:07:03.563Z,10.90
2019-02-20T04:09:14.352Z,12.03
2019-02-20T04:11:25.168Z,10.73
2019-02-20T04:13:35.959Z,9.27
2019-02-20T04:15:46.775Z,9.37
2019-02-20T04:17:57.593Z,9.83
2019-02-20T04:20:08.438Z,9.50
2019-02-20T04:22:19.249Z,9.17
2019-02-20T04:24:30.051Z,8.80
2019-02-20T04:26:40.879Z,9.60
2019-02-20T04:28:51.684Z,9.40
2019-02-20T04:31:02.474Z,9.37
2019-02-20T04:33:13.301Z,9.77
2019-02-20T04:35:24.091Z,8.93
2019-02-20T04:37:34.905Z,9.60
2019-02-20T04:39:45.728Z,9.97
2019-02-20T04:41:56.535Z,10.07
2019-02-20T04:44:07.337Z,15.17
2019-02-20T04:46:18.146Z,11.60
2019-02-20T04:48:29.087Z,10.77
2019-02-20T04:50:39.878Z,11.20
2019-02-20T04:52:50.723Z,11.30
2019-02-20T04:55:01.518Z,12.17
2019-02-20T04:57:12.349Z,10.83
2019-02-20T04:59:23.176Z,10.80
2019-02-20T05:01:33.969Z,11.87
2019-02-20T05:03:44.785Z,12.57
2019-02-20T05:05:55.583Z,12.43
2019-02-20T05:08:06.602Z,13.03
2019-02-20T05:10:17.403Z,11.93
2019-02-20T05:12:28.196Z,12.47
2019-02-20T05:14:39.014Z,12.37
2019-02-20T05:16:49.808Z,12.33
2019-02-20T05:19:00.634Z,12.90
2019-02-20T05:21:11.466Z,12.67
2019-02-20T05:23:22.298Z,12.63
2019-02-20T05:25:33.080Z,12.13
2019-02-20T05:27:43.899Z,10.83
2019-02-20T05:29:54.712Z,12.03
2019-02-20T05:32:05.505Z,13.43
2019-02-20T05:34:16.320Z,11.80
2019-02-20T05:36:27.114Z,12.80
2019-02-20T05:38:37.923Z,11.27
2019-02-20T05:40:48.735Z,11.30
2019-02-20T05:42:59.546Z,10.70
2019-02-20T05:45:10.357Z,10.73
2019-02-20T05:47:41.041Z,11.40
2019-02-20T05:49:51.853Z,10.90
2019-02-20T05:52:02.648Z,10.63
2019-02-20T05:54:13.465Z,11.93
2019-02-20T05:56:24.265Z,10.63
2019-02-20T05:58:35.054Z,10.33
2019-02-20T06:00:45.865Z,11.53
2019-02-20T06:02:56.675Z,10.10
2019-02-20T06:05:07.523Z,9.77
2019-02-20T06:07:18.314Z,9.40
2019-02-20T06:09:29.113Z,10.37
2019-02-20T06:11:39.934Z,10.93
2019-02-20T06:13:50.726Z,10.53
2019-02-20T06:16:01.550Z,10.17
2019-02-20T06:18:12.336Z,9.40
2019-02-20T06:20:23.202Z,8.77
2019-02-20T06:22:34.058Z,11.17
2019-02-20T06:24:44.874Z,11.93
2019-02-20T06:26:55.703Z,12.70
2019-02-20T06:29:26.375Z,13.60
2019-02-20T06:31:37.201Z,16.87
2019-02-20T06:33:47.994Z,15.40
2019-02-20T06:35:58.916Z,16.20
2019-02-20T06:38:11.052Z,14.73
2019-02-20T06:40:22.421Z,15.53
2019-02-20T06:42:33.226Z,16.37
2019-02-20T06:44:44.031Z,16.23
2019-02-20T06:46:54.859Z,14.57
2019-02-20T06:49:05.641Z,14.07
2019-02-20T06:51:16.478Z,14.33
2019-02-20T06:53:27.271Z,12.90
2019-02-20T06:55:38.052Z,12.00
2019-02-20T06:57:48.885Z,12.33
2019-02-20T06:59:59.677Z,12.13
2019-02-20T07:04:32.597Z,13.00
2019-02-20T07:07:25.077Z,17.73
2019-02-20T07:10:15.728Z,15.67
2019-02-20T07:13:08.203Z,17.83
2019-02-20T07:15:58.751Z,18.90
2019-02-20T07:18:51.241Z,17.33
2019-02-20T07:21:43.674Z,18.73
2019-02-20T07:24:34.234Z,18.20
2019-02-20T07:27:26.704Z,19.87
2019-02-20T07:29:58.282Z,17.77
2019-02-20T07:32:50.743Z,19.17
2019-02-20T07:35:01.840Z,18.03
2019-02-20T07:37:12.663Z,17.03
2019-02-20T07:39:23.446Z,16.53
2019-02-20T07:41:34.247Z,19.63
2019-02-20T07:43:45.064Z,19.07
2019-02-20T07:45:55.872Z,15.43
2019-02-20T07:48:06.678Z,15.63
2019-02-20T07:50:17.577Z,16.37
2019-02-20T07:52:28.379Z,15.20
2019-02-20T07:54:39.225Z,13.17
2019-02-20T07:56:50.014Z,15.67
2019-02-20T07:59:00.840Z,14.50
2019-02-20T08:01:11.617Z,14.20
2019-02-20T08:03:22.407Z,14.37
2019-02-20T08:05:33.223Z,15.17
2019-02-20T08:07:44.040Z,14.00
2019-02-20T08:09:54.851Z,14.70
2019-02-20T08:12:05.650Z,16.13
2019-02-20T08:14:16.560Z,14.97
2019-02-20T08:16:27.359Z,14.50
2019-02-20T08:18:38.150Z,15.67
2019-02-20T08:20:48.990Z,14.00
2019-02-20T08:22:59.784Z,15.20
2019-02-20T08:25:10.603Z,15.70
2019-02-20T08:27:21.397Z,15.27
2019-02-20T08:29:32.202Z,15.73
2019-02-20T08:31:43.017Z,15.10
2019-02-20T08:33:53.907Z,15.27
2019-02-20T08:36:04.723Z,16.47
2019-02-20T08:38:15.537Z,14.83
2019-02-20T08:40:26.358Z,15.17
2019-02-20T08:42:37.151Z,16.40
2019-02-20T08:44:47.947Z,16.27
2019-02-20T08:46:58.758Z,14.70
2019-02-20T08:49:09.556Z,15.53
2019-02-20T08:51:20.390Z,15.73
2019-02-20T08:53:31.192Z,15.93
2019-02-20T08:55:42.012Z,15.67
2019-02-20T08:57:52.812Z,15.67
2019-02-20T09:00:45.280Z,15.07
2019-02-20T09:02:56.084Z,14.53
2019-02-20T09:05:48.585Z,15.83
2019-02-20T09:07:59.380Z,14.83
2019-02-20T09:10:51.851Z,16.23
2019-02-20T09:13:02.643Z,16.67
2019-02-20T09:15:13.450Z,15.70
2019-02-20T09:17:24.309Z,16.10
2019-02-20T09:19:35.098Z,15.33
2019-02-20T09:21:45.983Z,16.40
2019-02-20T09:23:56.775Z,14.87
2019-02-20T09:26:07.566Z,15.63
2019-02-20T09:28:18.393Z,14.83
2019-02-20T09:30:29.769Z,15.30
2019-02-20T09:32:41.930Z,14.30
2019-02-20T09:34:52.736Z,14.87
2019-02-20T09:37:03.553Z,15.47
2019-02-20T09:39:34.818Z,14.03
2019-02-20T09:41:45.617Z,14.63
2019-02-20T09:43:56.439Z,15.00
2019-02-20T09:46:07.260Z,16.23
2019-02-20T09:48:18.079Z,16.00
2019-02-20T09:50:28.897Z,16.87
2019-02-20T09:52:39.703Z,16.80
2019-02-20T09:54:50.499Z,16.17
2019-02-20T09:57:01.296Z,15.20
2019-02-20T09:59:12.120Z,16.10
2019-02-20T10:01:22.915Z,15.70
2019-02-20T10:03:33.736Z,15.77
2019-02-20T10:05:44.553Z,16.03
2019-02-20T10:07:55.397Z,15.27
2019-02-20T10:10:47.838Z,16.70
2019-02-20T10:12:58.642Z,16.40
2019-02-20T10:15:51.079Z,15.73
2019-02-20T10:18:01.905Z,14.57
2019-02-20T10:20:12.869Z,14.90
2019-02-20T10:22:23.654Z,15.07
2019-02-20T10:24:34.484Z,16.30
2019-02-20T10:26:45.338Z,15.67
2019-02-20T10:28:56.154Z,14.70
2019-02-20T10:31:06.956Z,14.87
2019-02-20T10:33:17.746Z,14.47
2019-02-20T10:35:28.558Z,14.30
2019-02-20T10:37:39.349Z,15.27
2019-02-20T10:39:50.172Z,15.10
2019-02-20T10:42:00.950Z,10.93
2019-02-20T10:44:11.764Z,9.13
2019-02-20T10:46:22.554Z,6.70
2019-02-20T10:48:33.360Z,7.50
2019-02-20T10:50:44.174Z,8.60
2019-02-20T10:52:54.986Z,9.27
2019-02-20T10:55:47.456Z,8.83
2019-02-20T10:57:59.119Z,9.10
2019-02-20T11:00:51.608Z,8.03
2019-02-20T11:03:02.392Z,6.90
2019-02-20T11:05:13.246Z,7.27
2019-02-20T11:07:24.048Z,6.67
2019-02-20T11:09:34.887Z,6.40
2019-02-20T11:11:45.701Z,6.20
2019-02-20T11:13:56.537Z,8.83
2019-02-20T11:16:07.345Z,9.80
2019-02-20T11:18:18.144Z,9.77
2019-02-20T11:20:28.959Z,8.97
2019-02-20T11:22:39.884Z,9.37
2019-02-20T11:24:50.673Z,7.30
2019-02-20T11:27:01.509Z,6.90
2019-02-20T11:29:12.322Z,6.30
2019-02-20T11:31:23.162Z,7.73
2019-02-20T11:33:35.252Z,8.83
2019-02-20T11:35:46.727Z,7.70
2019-02-20T11:37:57.535Z,8.17
2019-02-20T11:40:50.005Z,7.47
2019-02-20T11:43:00.783Z,6.63
2019-02-20T11:45:53.252Z,6.60
2019-02-20T11:48:04.035Z,6.40
2019-02-20T11:50:14.850Z,6.10
2019-02-20T11:52:25.689Z,7.13
2019-02-20T11:54:36.534Z,7.33
2019-02-20T11:56:47.346Z,7.40
2019-02-20T11:58:58.154Z,6.50
2019-02-20T12:01:08.963Z,6.30
2019-02-20T12:03:19.782Z,6.50
2019-02-20T12:05:30.579Z,5.83
2019-02-20T12:07:41.401Z,5.93
2019-02-20T12:09:52.206Z,5.07
2019-02-20T12:12:03.050Z,5.80
2019-02-20T12:14:13.954Z,4.70
2019-02-20T12:16:24.773Z,4.63
2019-02-20T12:18:35.602Z,4.73
2019-02-20T12:20:46.412Z,3.60
2019-02-20T12:22:57.360Z,4.83
2019-02-20T12:25:49.836Z,4.40
2019-02-20T12:28:00.674Z,5.60
2019-02-20T12:30:11.591Z,6.30
2019-02-20T12:32:22.390Z,6.40
2019-02-20T12:34:33.208Z,6.10
2019-02-20T12:36:44.019Z,7.07
2019-02-20T12:38:54.848Z,7.17
2019-02-20T12:41:05.645Z,7.50
2019-02-20T12:43:16.465Z,8.77
2019-02-20T12:45:27.302Z,8.60
2019-02-20T12:47:38.134Z,8.23
2019-02-20T12:49:48.922Z,7.70
2019-02-20T12:52:00.181Z,8.80
2019-02-20T12:54:12.457Z,7.83
2019-02-20T12:56:23.278Z,8.90
2019-02-20T12:58:34.089Z,8.47
2019-02-20T13:00:44.882Z,8.23
2019-02-20T13:02:55.686Z,8.63
2019-02-20T13:05:48.197Z,8.57
2019-02-20T13:07:59.038Z,9.50
2019-02-20T13:10:09.998Z,8.77
2019-02-20T13:12:20.955Z,8.57
2019-02-20T13:14:31.774Z,8.43
2019-02-20T13:16:42.586Z,7.83
2019-02-20T13:18:53.376Z,8.20
2019-02-20T13:21:04.215Z,8.03
2019-02-20T13:23:15.027Z,7.77
2019-02-20T13:25:25.845Z,8.03
2019-02-20T13:27:36.742Z,7.33
2019-02-20T13:29:47.590Z,8.63
2019-02-20T13:31:58.395Z,8.00
2019-02-20T13:34:09.207Z,8.13
2019-02-20T13:36:20.086Z,8.33
2019-02-20T13:38:30.890Z,8.73
2019-02-20T13:40:41.721Z,8.70
2019-02-20T13:42:52.541Z,8.70
2019-02-20T13:45:44.992Z,8.00
2019-02-20T13:47:55.812Z,8.93
2019-02-20T13:50:50.193Z,7.43
2019-02-20T13:53:00.985Z,8.23
2019-02-20T13:55:11.925Z,7.87
2019-02-20T13:57:22.854Z,9.07
2019-02-20T13:59:33.668Z,8.03
2019-02-20T14:01:45.679Z,7.60
2019-02-20T14:03:57.238Z,8.10
2019-02-20T14:06:08.050Z,7.60
2019-02-20T14:08:18.867Z,8.43
2019-02-20T14:10:29.687Z,8.67
2019-02-20T14:12:40.536Z,8.30
2019-02-20T14:14:51.337Z,7.80
2019-02-20T14:19:41.497Z,7.23
2019-02-20T14:21:52.339Z,7.80
2019-02-20T14:24:03.349Z,7.80
2019-02-20T14:26:14.152Z,8.93
2019-02-20T14:28:24.984Z,8.43
2019-02-20T14:30:35.893Z,9.10
2019-02-20T14:32:48.737Z,8.40
2019-02-20T14:34:59.544Z,7.90
2019-02-20T14:37:10.421Z,8.27
2019-02-20T14:39:21.244Z,8.43
2019-02-20T14:41:32.062Z,9.00
2019-02-20T14:43:42.928Z,9.07
2019-02-20T14:45:53.725Z,8.60
2019-02-20T14:48:04.569Z,9.00
2019-02-20T14:50:15.358Z,8.40
2019-02-20T14:52:26.190Z,8.03
2019-02-20T14:54:38.908Z,9.60
2019-02-20T14:56:49.703Z,8.53
2019-02-20T14:59:00.522Z,8.73
2019-02-20T15:01:13.145Z,8.73
2019-02-20T15:03:24.059Z,8.43
2019-02-20T15:05:34.887Z,8.60
2019-02-20T15:07:45.693Z,7.87
2019-02-20T15:09:56.527Z,7.63
2019-02-20T15:12:07.347Z,8.27
2019-02-20T15:14:18.187Z,7.83
2019-02-20T15:16:30.915Z,8.60
2019-02-20T15:18:41.730Z,8.57
2019-02-20T15:20:52.543Z,7.57
2019-02-20T15:23:03.367Z,8.50
2019-02-20T15:25:14.193Z,7.73
2019-02-20T15:27:28.661Z,8.10
2019-02-20T15:29:37.847Z,8.37
2019-02-20T15:31:48.745Z,8.07
2019-02-20T15:33:59.677Z,8.53
2019-02-20T15:36:10.503Z,7.80
2019-02-20T15:38:21.301Z,7.27
2019-02-20T15:40:32.130Z,8.13
2019-02-20T15:42:42.929Z,8.77
2019-02-20T15:44:53.786Z,8.93
2019-02-20T15:47:04.579Z,7.93
2019-02-20T15:49:15.418Z,6.40
2019-02-20T15:51:26.208Z,8.23
2019-02-20T15:53:36.990Z,6.77
2019-02-20T15:55:47.816Z,6.17
2019-02-20T15:58:00.547Z,6.13
2019-02-20T16:00:31.233Z,6.67
2019-02-20T16:02:42.034Z,7.10
2019-02-20T16:04:54.789Z,7.00
2019-02-20T16:07:05.592Z,10.80
2019-02-20T16:09:16.401Z,9.93
2019-02-20T16:11:27.345Z,9.40
2019-02-20T16:13:38.142Z,8.53
2019-02-20T16:15:48.998Z,6.80
2019-02-20T16:17:59.879Z,6.47
2019-02-20T16:20:52.372Z,6.43
2019-02-20T16:23:03.165Z,6.73
2019-02-20T16:25:55.626Z,7.93
2019-02-20T16:28:06.418Z,5.80
2019-02-20T16:30:19.253Z,6.90
2019-02-20T16:32:30.097Z,8.27
2019-02-20T16:34:40.923Z,8.10
2019-02-20T16:36:51.763Z,9.17
2019-02-20T16:39:44.219Z,8.27
2019-02-20T16:41:55.080Z,7.53
2019-02-20T16:44:07.767Z,7.33
2019-02-20T16:46:18.633Z,7.50
2019-02-20T16:48:29.556Z,7.77
2019-02-20T16:50:40.470Z,8.43
2019-02-20T16:52:51.294Z,7.83
2019-02-20T16:55:02.201Z,7.40
2019-02-20T16:57:13.071Z,7.73
2019-02-20T16:59:23.913Z,7.73
2019-02-20T17:01:34.666Z,7.50
2019-02-20T17:03:47.402Z,7.50
2019-02-20T17:05:58.213Z,6.77
2019-02-20T17:08:09.152Z,6.93
2019-02-20T17:10:19.974Z,7.03
2019-02-20T17:12:30.841Z,7.20
2019-02-20T17:14:41.636Z,7.40
2019-02-20T17:16:52.553Z,7.57
2019-02-20T17:19:03.428Z,7.17
2019-02-20T17:21:34.157Z,8.00
2019-02-20T17:23:45.097Z,9.10
2019-02-20T17:25:56.004Z,10.33
2019-02-20T17:28:06.909Z,12.77
2019-02-20T17:30:39.503Z,7.80
2019-02-20T17:32:50.327Z,7.17
2019-02-20T17:35:01.159Z,8.03
2019-02-20T17:37:11.954Z,7.10
2019-02-20T17:39:24.829Z,7.83
2019-02-20T17:41:35.717Z,7.90
2019-02-20T17:43:46.517Z,7.40
2019-02-20T17:45:57.353Z,7.77
2019-02-20T17:48:08.166Z,8.10
2019-02-20T17:51:00.641Z,8.20
2019-02-20T17:53:11.729Z,7.17
2019-02-20T17:55:22.577Z,7.60
2019-02-20T17:57:33.398Z,6.77
2019-02-20T17:59:45.210Z,6.57
2019-02-20T18:01:58.471Z,7.80
2019-02-20T18:04:09.688Z,7.90
2019-02-20T18:06:20.606Z,7.40
2019-02-20T18:08:31.414Z,8.17
2019-02-20T18:10:42.404Z,7.93
2019-02-20T18:12:53.230Z,7.77
2019-02-20T18:15:23.934Z,6.73
2019-02-20T18:17:34.769Z,6.73
2019-02-20T18:19:45.596Z,7.13
2019-02-20T18:21:56.417Z,7.20
2019-02-20T18:24:07.235Z,7.27
2019-02-20T18:26:18.124Z,7.53
2019-02-20T18:28:29.036Z,8.23
2019-02-20T18:30:39.869Z,8.03
2019-02-20T18:32:50.670Z,8.30
2019-02-20T18:35:01.535Z,8.80
2019-02-20T18:37:12.356Z,9.20
2019-02-20T18:39:23.173Z,9.00
2019-02-20T18:41:34.020Z,11.07
2019-02-20T18:43:44.815Z,12.43
2019-02-20T18:45:55.721Z,9.20
2019-02-20T18:48:06.639Z,8.97
2019-02-20T18:50:17.532Z,8.93
2019-02-20T18:52:28.375Z,8.73
2019-02-20T18:54:39.212Z,8.50
2019-02-20T18:56:50.045Z,8.00
2019-02-20T18:59:00.845Z,9.97
2019-02-20T19:01:11.677Z,8.90
2019-02-20T19:03:22.542Z,9.47
2019-02-20T19:05:33.853Z,9.70
2019-02-20T19:07:46.192Z,8.47
2019-02-20T19:09:57.130Z,8.03
2019-02-20T19:12:49.694Z,8.97
2019-02-20T19:15:42.169Z,7.53
2019-02-20T19:18:34.667Z,7.83
2019-02-20T19:21:27.130Z,11.87
2019-02-20T19:24:17.767Z,8.20
2019-02-20T19:27:08.314Z,7.97
2019-02-20T19:30:00.814Z,8.17
2019-02-20T19:32:51.510Z,7.23
2019-02-20T19:35:42.078Z,8.03
2019-02-20T19:38:32.626Z,7.93
2019-02-20T19:41:23.225Z,8.40
2019-02-20T19:44:13.815Z,7.80
2019-02-20T19:47:06.258Z,8.83
2019-02-20T19:49:58.770Z,9.73
2019-02-20T19:52:51.250Z,8.33
2019-02-20T19:55:41.901Z,8.23
2019-02-20T19:58:34.423Z,8.23
2019-02-20T20:01:25.002Z,8.17
2019-02-20T20:04:17.575Z,8.07
2019-02-20T20:07:10.035Z,16.07
2019-02-20T20:12:22.226Z,8.10
2019-02-20T20:15:14.901Z,7.77
2019-02-20T20:18:07.424Z,8.77
2019-02-20T20:20:59.957Z,8.37
2019-02-20T20:23:52.405Z,9.40
2019-02-20T20:26:47.231Z,8.03
2019-02-20T20:29:37.364Z,8.90
2019-02-20T20:32:29.860Z,8.63
2019-02-20T20:35:20.392Z,8.50
2019-02-20T20:38:12.855Z,8.80
2019-02-20T20:41:05.292Z,9.33
2019-02-20T20:43:57.727Z,9.10
2019-02-20T20:46:50.515Z,8.20
2019-02-20T20:49:41.048Z,7.30
2019-02-20T20:52:31.601Z,7.23
2019-02-20T20:55:22.141Z,8.10
2019-02-20T20:58:12.708Z,8.50
2019-02-20T21:01:03.262Z,7.80
2019-02-20T21:03:55.726Z,8.40
2019-02-20T21:06:46.348Z,8.00
2019-02-20T21:09:38.792Z,9.63
2019-02-20T21:12:29.355Z,8.50
2019-02-20T21:15:21.808Z,8.60
2019-02-20T21:18:14.265Z,8.23
2019-02-20T21:21:06.709Z,7.53
2019-02-20T21:24:01.782Z,7.60
2019-02-20T21:26:53.539Z,8.57
2019-02-20T21:29:44.135Z,8.50
2019-02-20T21:32:34.684Z,8.43
2019-02-20T21:35:27.127Z,8.33
2019-02-20T21:38:17.713Z,8.00
2019-02-20T21:41:10.254Z,7.77
2019-02-20T21:44:00.819Z,7.67
2019-02-20T21:46:53.268Z,9.03
2019-02-20T21:49:45.772Z,8.77
2019-02-20T21:52:36.344Z,8.30
2019-02-20T21:55:26.907Z,7.80
2019-02-20T21:58:17.466Z,8.67
2019-02-20T22:01:09.912Z,8.30
2019-02-20T22:04:00.461Z,9.13
2019-02-20T22:06:53.261Z,9.07
2019-02-20T22:09:43.935Z,8.93
2019-02-20T22:12:36.783Z,9.07
2019-02-20T22:15:27.332Z,7.70
2019-02-20T22:18:19.783Z,7.90
2019-02-20T22:21:10.327Z,8.37
2019-02-20T22:24:00.900Z,8.57
2019-02-20T22:26:53.364Z,8.40
2019-02-20T22:29:50.178Z,11.70
2019-02-20T22:32:39.061Z,10.33
2019-02-20T22:35:32.695Z,7.70
2019-02-20T22:38:23.237Z,7.77
2019-02-20T22:41:15.695Z,8.50
2019-02-20T22:44:06.240Z,8.93
2019-02-20T22:46:56.788Z,8.37
2019-02-20T22:49:49.276Z,8.20
2019-02-20T22:52:41.705Z,8.60
2019-02-20T22:55:14.323Z,9.03
2019-02-20T22:58:04.851Z,8.90
2019-02-20T23:00:55.798Z,9.30
2019-02-20T23:03:46.332Z,9.57
2019-02-20T23:06:36.871Z,8.73
2019-02-20T23:09:29.330Z,8.70
2019-02-20T23:12:19.886Z,8.97
2019-02-20T23:15:12.342Z,9.47
2019-02-20T23:18:04.809Z,10.10
2019-02-20T23:20:15.606Z,9.20
2019-02-20T23:22:26.485Z,8.90
2019-02-20T23:24:37.282Z,9.37
2019-02-20T23:26:48.069Z,9.60
2019-02-20T23:28:58.886Z,8.07
2019-02-20T23:31:09.673Z,8.40
2019-02-20T23:33:20.488Z,9.10
2019-02-20T23:35:31.269Z,8.60
2019-02-20T23:37:42.087Z,8.27
2019-02-20T23:39:52.915Z,8.40
2019-02-20T23:42:03.716Z,9.63
2019-02-20T23:44:14.527Z,9.93
2019-02-20T23:46:25.328Z,10.00
2019-02-20T23:48:36.162Z,10.50
2019-02-20T23:50:46.962Z,10.07
2019-02-20T23:52:57.813Z,9.60
2019-02-20T23:55:08.614Z,9.87
2019-02-20T23:57:19.390Z,9.53
2019-02-20T23:59:30.220Z,9.53
